sensor_id;sensor_type;location;lat;lon;timestamp;pressure;altitude;pressure_sealevel;temperature;humidity
76746;BME280;65671;49.976;20.038;2023-06-04T00:02:09;98411.47;;;8.35;74.47
76746;BME280;65671;49.976;20.038;2023-06-04T00:04:35;98398.56;;;8.22;74.85
76746;BME280;65671;49.976;20.038;2023-06-04T00:07:01;98410.63;;;8.28;73.24
76746;BME280;65671;49.976;20.038;2023-06-04T00:09:26;98404.34;;;8.24;74.40
76746;BME280;65671;49.976;20.038;2023-06-04T00:11:52;98397.38;;;8.19;73.96
76746;BME280;65671;49.976;20.038;2023-06-04T00:14:18;98400.94;;;8.27;74.13
76746;BME280;65671;49.976;20.038;2023-06-04T00:16:43;98399.03;;;8.27;73.75
76746;BME280;65671;49.976;20.038;2023-06-04T00:19:09;98398.16;;;8.20;74.37
76746;BME280;65671;49.976;20.038;2023-06-04T00:21:34;98398.19;;;8.23;74.58
76746;BME280;65671;49.976;20.038;2023-06-04T00:24:01;98395.81;;;8.18;74.54
76746;BME280;65671;49.976;20.038;2023-06-04T00:26:27;98390.00;;;8.16;74.96
76746;BME280;65671;49.976;20.038;2023-06-04T00:28:54;98386.81;;;8.07;75.96
76746;BME280;65671;49.976;20.038;2023-06-04T00:31:20;98385.16;;;7.99;76.40
76746;BME280;65671;49.976;20.038;2023-06-04T00:33:50;98391.28;;;7.96;75.40
76746;BME280;65671;49.976;20.038;2023-06-04T00:36:15;98379.47;;;7.78;76.65
76746;BME280;65671;49.976;20.038;2023-06-04T00:38:41;98381.28;;;7.70;78.59
76746;BME280;65671;49.976;20.038;2023-06-04T00:41:07;98377.16;;;7.80;77.00
76746;BME280;65671;49.976;20.038;2023-06-04T00:43:32;98374.19;;;7.85;76.91
76746;BME280;65671;49.976;20.038;2023-06-04T00:45:59;98377.88;;;7.73;78.50
76746;BME280;65671;49.976;20.038;2023-06-04T00:48:26;98373.88;;;7.64;78.30
76746;BME280;65671;49.976;20.038;2023-06-04T00:50:53;98372.50;;;7.77;77.52
76746;BME280;65671;49.976;20.038;2023-06-04T00:53:21;98367.22;;;7.84;77.96
76746;BME280;65671;49.976;20.038;2023-06-04T00:55:48;98365.13;;;7.74;78.22
76746;BME280;65671;49.976;20.038;2023-06-04T00:58:13;98365.78;;;7.64;77.98
76746;BME280;65671;49.976;20.038;2023-06-04T01:00:41;98366.59;;;7.68;79.00
76746;BME280;65671;49.976;20.038;2023-06-04T01:03:14;98373.81;;;7.60;78.95
76746;BME280;65671;49.976;20.038;2023-06-04T01:08:12;98380.22;;;7.52;81.08
76746;BME280;65671;49.976;20.038;2023-06-04T01:10:50;98367.88;;;7.51;80.47
76746;BME280;65671;49.976;20.038;2023-06-04T01:13:16;98375.84;;;7.44;81.00
76746;BME280;65671;49.976;20.038;2023-06-04T01:15:41;98376.75;;;7.52;80.88
76746;BME280;65671;49.976;20.038;2023-06-04T01:18:07;98370.47;;;7.44;81.04
76746;BME280;65671;49.976;20.038;2023-06-04T01:20:39;98374.72;;;7.45;80.92
76746;BME280;65671;49.976;20.038;2023-06-04T01:25:36;98373.13;;;7.41;82.02
76746;BME280;65671;49.976;20.038;2023-06-04T01:28:06;98376.53;;;7.38;81.32
76746;BME280;65671;49.976;20.038;2023-06-04T01:30:34;98363.44;;;7.13;82.62
76746;BME280;65671;49.976;20.038;2023-06-04T01:33:01;98366.72;;;7.26;82.34
76746;BME280;65671;49.976;20.038;2023-06-04T01:35:28;98372.88;;;7.26;81.59
76746;BME280;65671;49.976;20.038;2023-06-04T01:37:56;98373.00;;;7.34;80.77
76746;BME280;65671;49.976;20.038;2023-06-04T01:40:23;98371.88;;;7.35;80.91
76746;BME280;65671;49.976;20.038;2023-06-04T01:42:50;98356.44;;;7.32;80.27
76746;BME280;65671;49.976;20.038;2023-06-04T01:45:15;98372.94;;;7.30;80.92
76746;BME280;65671;49.976;20.038;2023-06-04T01:47:41;98362.81;;;7.23;81.66
76746;BME280;65671;49.976;20.038;2023-06-04T01:50:07;98376.09;;;7.36;81.19
76746;BME280;65671;49.976;20.038;2023-06-04T01:52:35;98369.47;;;7.29;81.52
76746;BME280;65671;49.976;20.038;2023-06-04T01:55:05;98367.47;;;7.26;81.75
76746;BME280;65671;49.976;20.038;2023-06-04T01:57:33;98362.78;;;7.20;82.29
76746;BME280;65671;49.976;20.038;2023-06-04T01:59:58;98364.69;;;7.19;82.40
76746;BME280;65671;49.976;20.038;2023-06-04T02:02:24;98374.53;;;7.12;82.80
76746;BME280;65671;49.976;20.038;2023-06-04T02:04:50;98374.44;;;7.05;82.78
76746;BME280;65671;49.976;20.038;2023-06-04T02:07:19;98370.19;;;7.04;82.64
76746;BME280;65671;49.976;20.038;2023-06-04T02:09:47;98372.00;;;6.96;83.41
76746;BME280;65671;49.976;20.038;2023-06-04T02:12:13;98371.00;;;6.85;84.62
76746;BME280;65671;49.976;20.038;2023-06-04T02:14:39;98371.13;;;6.92;84.46
76746;BME280;65671;49.976;20.038;2023-06-04T02:17:05;98356.72;;;6.81;84.60
76746;BME280;65671;49.976;20.038;2023-06-04T02:19:39;98357.28;;;6.90;84.55
76746;BME280;65671;49.976;20.038;2023-06-04T02:22:05;98356.22;;;6.76;84.77
76746;BME280;65671;49.976;20.038;2023-06-04T02:24:32;98356.28;;;6.79;84.96
76746;BME280;65671;49.976;20.038;2023-06-04T02:26:57;98359.16;;;6.67;85.66
76746;BME280;65671;49.976;20.038;2023-06-04T02:29:23;98356.66;;;6.78;85.57
76746;BME280;65671;49.976;20.038;2023-06-04T02:31:48;98352.63;;;6.68;85.75
76746;BME280;65671;49.976;20.038;2023-06-04T02:34:14;98363.03;;;6.69;86.93
76746;BME280;65671;49.976;20.038;2023-06-04T02:36:39;98364.16;;;6.68;85.84
76746;BME280;65671;49.976;20.038;2023-06-04T02:39:05;98364.16;;;6.68;85.79
76746;BME280;65671;49.976;20.038;2023-06-04T02:41:31;98361.53;;;6.72;85.80
76746;BME280;65671;49.976;20.038;2023-06-04T02:43:56;98361.47;;;6.68;85.67
76746;BME280;65671;49.976;20.038;2023-06-04T02:46:21;98368.41;;;6.69;85.29
76746;BME280;65671;49.976;20.038;2023-06-04T02:48:47;98361.72;;;6.83;85.44
76746;BME280;65671;49.976;20.038;2023-06-04T02:51:12;98360.47;;;6.77;86.19
76746;BME280;65671;49.976;20.038;2023-06-04T02:53:38;98365.28;;;6.87;85.54
76746;BME280;65671;49.976;20.038;2023-06-04T02:56:04;98363.94;;;6.77;85.91
76746;BME280;65671;49.976;20.038;2023-06-04T02:58:29;98360.13;;;6.78;86.67
76746;BME280;65671;49.976;20.038;2023-06-04T03:00:56;98360.06;;;6.74;86.11
76746;BME280;65671;49.976;20.038;2023-06-04T03:03:22;98361.78;;;6.86;86.36
76746;BME280;65671;49.976;20.038;2023-06-04T03:05:47;98354.28;;;6.76;86.61
76746;BME280;65671;49.976;20.038;2023-06-04T03:08:13;98363.13;;;6.73;86.42
76746;BME280;65671;49.976;20.038;2023-06-04T03:10:38;98363.72;;;6.86;86.79
76746;BME280;65671;49.976;20.038;2023-06-04T03:13:04;98364.19;;;6.91;86.91
76746;BME280;65671;49.976;20.038;2023-06-04T03:15:30;98365.03;;;6.95;86.46
76746;BME280;65671;49.976;20.038;2023-06-04T03:17:55;98366.94;;;7.17;85.46
76746;BME280;65671;49.976;20.038;2023-06-04T03:20:22;98368.56;;;7.22;85.35
76746;BME280;65671;49.976;20.038;2023-06-04T03:22:50;98358.84;;;7.14;86.35
76746;BME280;65671;49.976;20.038;2023-06-04T03:25:16;98366.22;;;7.20;86.26
76746;BME280;65671;49.976;20.038;2023-06-04T03:27:42;98363.59;;;7.24;86.69
76746;BME280;65671;49.976;20.038;2023-06-04T03:30:08;98360.50;;;7.22;86.85
76746;BME280;65671;49.976;20.038;2023-06-04T03:32:34;98367.13;;;7.28;87.07
76746;BME280;65671;49.976;20.038;2023-06-04T03:35:00;98373.53;;;7.43;86.76
76746;BME280;65671;49.976;20.038;2023-06-04T03:37:26;98373.41;;;7.36;87.18
76746;BME280;65671;49.976;20.038;2023-06-04T03:39:52;98364.97;;;7.37;87.62
76746;BME280;65671;49.976;20.038;2023-06-04T03:42:17;98378.59;;;7.48;86.40
76746;BME280;65671;49.976;20.038;2023-06-04T03:44:44;98386.56;;;7.63;86.40
76746;BME280;65671;49.976;20.038;2023-06-04T03:47:09;98389.31;;;7.67;86.48
76746;BME280;65671;49.976;20.038;2023-06-04T03:49:35;98388.06;;;7.87;84.94
76746;BME280;65671;49.976;20.038;2023-06-04T03:52:00;98381.47;;;7.84;85.24
76746;BME280;65671;49.976;20.038;2023-06-04T03:54:26;98390.16;;;8.01;84.58
76746;BME280;65671;49.976;20.038;2023-06-04T03:56:51;98386.75;;;8.04;84.76
76746;BME280;65671;49.976;20.038;2023-06-04T03:59:17;98381.72;;;8.02;85.25
76746;BME280;65671;49.976;20.038;2023-06-04T04:01:42;98378.19;;;7.98;85.74
76746;BME280;65671;49.976;20.038;2023-06-04T04:04:08;98387.25;;;8.13;85.33
76746;BME280;65671;49.976;20.038;2023-06-04T04:06:34;98390.84;;;8.20;85.27
76746;BME280;65671;49.976;20.038;2023-06-04T04:09:01;98384.91;;;8.37;84.54
76746;BME280;65671;49.976;20.038;2023-06-04T04:11:28;98383.53;;;8.51;85.11
76746;BME280;65671;49.976;20.038;2023-06-04T04:13:53;98377.97;;;8.36;84.58
76746;BME280;65671;49.976;20.038;2023-06-04T04:16:19;98373.09;;;8.49;84.22
76746;BME280;65671;49.976;20.038;2023-06-04T04:18:44;98378.94;;;8.55;84.78
76746;BME280;65671;49.976;20.038;2023-06-04T04:21:10;98382.16;;;8.64;84.77
76746;BME280;65671;49.976;20.038;2023-06-04T04:23:37;98391.56;;;8.80;83.66
76746;BME280;65671;49.976;20.038;2023-06-04T04:26:04;98389.34;;;8.89;83.11
76746;BME280;65671;49.976;20.038;2023-06-04T04:28:30;98380.03;;;8.83;83.65
76746;BME280;65671;49.976;20.038;2023-06-04T04:30:58;98381.16;;;8.79;84.64
76746;BME280;65671;49.976;20.038;2023-06-04T04:33:27;98382.41;;;8.88;83.23
76746;BME280;65671;49.976;20.038;2023-06-04T04:35:56;98377.16;;;9.03;81.27
76746;BME280;65671;49.976;20.038;2023-06-04T04:38:24;98377.16;;;9.03;83.37
76746;BME280;65671;49.976;20.038;2023-06-04T04:40:50;98370.38;;;9.23;80.37
76746;BME280;65671;49.976;20.038;2023-06-04T04:43:29;98382.66;;;9.13;82.27
76746;BME280;65671;49.976;20.038;2023-06-04T04:45:55;98380.41;;;9.22;81.17
76746;BME280;65671;49.976;20.038;2023-06-04T04:48:21;98380.22;;;9.41;81.51
76746;BME280;65671;49.976;20.038;2023-06-04T04:50:46;98382.13;;;9.41;80.95
76746;BME280;65671;49.976;20.038;2023-06-04T04:53:12;98372.91;;;9.49;80.47
76746;BME280;65671;49.976;20.038;2023-06-04T04:55:37;98376.50;;;9.64;79.53
76746;BME280;65671;49.976;20.038;2023-06-04T04:58:03;98381.97;;;9.71;78.78
76746;BME280;65671;49.976;20.038;2023-06-04T05:00:29;98388.97;;;9.79;79.37
76746;BME280;65671;49.976;20.038;2023-06-04T05:02:55;98385.47;;;9.75;78.15
76746;BME280;65671;49.976;20.038;2023-06-04T05:05:21;98397.16;;;9.89;79.01
76746;BME280;65671;49.976;20.038;2023-06-04T05:07:47;98395.13;;;10.30;78.45
76746;BME280;65671;49.976;20.038;2023-06-04T05:10:13;98397.06;;;10.33;77.00
76746;BME280;65671;49.976;20.038;2023-06-04T05:12:38;98413.25;;;10.26;77.50
76746;BME280;65671;49.976;20.038;2023-06-04T05:15:04;98405.28;;;10.51;76.16
76746;BME280;65671;49.976;20.038;2023-06-04T05:17:30;98408.31;;;10.42;75.73
76746;BME280;65671;49.976;20.038;2023-06-04T05:19:56;98397.91;;;10.48;75.56
76746;BME280;65671;49.976;20.038;2023-06-04T05:22:37;98397.59;;;10.71;76.56
76746;BME280;65671;49.976;20.038;2023-06-04T05:25:03;98396.81;;;10.70;74.13
76746;BME280;65671;49.976;20.038;2023-06-04T05:27:28;98402.28;;;10.84;75.19
76746;BME280;65671;49.976;20.038;2023-06-04T05:29:55;98405.78;;;10.95;76.11
76746;BME280;65671;49.976;20.038;2023-06-04T05:32:21;98410.09;;;11.07;74.23
76746;BME280;65671;49.976;20.038;2023-06-04T05:34:48;98405.00;;;10.88;74.27
76746;BME280;65671;49.976;20.038;2023-06-04T05:37:14;98412.81;;;11.14;74.29
76746;BME280;65671;49.976;20.038;2023-06-04T05:39:42;98415.13;;;11.23;73.16
76746;BME280;65671;49.976;20.038;2023-06-04T05:42:08;98407.00;;;11.23;72.43
76746;BME280;65671;49.976;20.038;2023-06-04T05:44:34;98405.88;;;11.41;71.50
76746;BME280;65671;49.976;20.038;2023-06-04T05:47:00;98400.84;;;11.50;71.00
76746;BME280;65671;49.976;20.038;2023-06-04T05:49:25;98400.84;;;11.64;72.18
76746;BME280;65671;49.976;20.038;2023-06-04T05:51:51;98396.59;;;11.85;71.42
76746;BME280;65671;49.976;20.038;2023-06-04T05:54:17;98405.47;;;11.64;71.16
76746;BME280;65671;49.976;20.038;2023-06-04T05:56:42;98407.06;;;11.79;72.07
76746;BME280;65671;49.976;20.038;2023-06-04T05:59:08;98401.59;;;12.04;69.88
76746;BME280;65671;49.976;20.038;2023-06-04T06:01:33;98403.53;;;12.03;71.63
76746;BME280;65671;49.976;20.038;2023-06-04T06:04:00;98407.00;;;12.11;71.25
76746;BME280;65671;49.976;20.038;2023-06-04T06:06:25;98416.34;;;12.10;68.91
76746;BME280;65671;49.976;20.038;2023-06-04T06:08:51;98416.34;;;12.10;68.81
76746;BME280;65671;49.976;20.038;2023-06-04T06:11:18;98417.81;;;12.43;68.89
76746;BME280;65671;49.976;20.038;2023-06-04T06:13:44;98415.78;;;12.64;69.34
76746;BME280;65671;49.976;20.038;2023-06-04T06:16:09;98413.75;;;12.82;68.89
76746;BME280;65671;49.976;20.038;2023-06-04T06:18:34;98417.75;;;12.57;66.59
76746;BME280;65671;49.976;20.038;2023-06-04T06:21:00;98421.19;;;12.71;66.37
76746;BME280;65671;49.976;20.038;2023-06-04T06:23:25;98417.53;;;12.99;65.27
76746;BME280;65671;49.976;20.038;2023-06-04T06:25:51;98408.91;;;13.22;66.04
76746;BME280;65671;49.976;20.038;2023-06-04T06:28:18;98409.63;;;13.29;68.05
76746;BME280;65671;49.976;20.038;2023-06-04T06:30:43;98408.16;;;13.18;66.17
76746;BME280;65671;49.976;20.038;2023-06-04T06:33:09;98417.34;;;13.34;66.31
76746;BME280;65671;49.976;20.038;2023-06-04T06:35:35;98422.56;;;13.70;64.59
76746;BME280;65671;49.976;20.038;2023-06-04T06:38:01;98422.16;;;13.71;64.93
76746;BME280;65671;49.976;20.038;2023-06-04T06:40:27;98431.44;;;13.77;63.28
76746;BME280;65671;49.976;20.038;2023-06-04T06:42:52;98420.59;;;14.11;65.20
76746;BME280;65671;49.976;20.038;2023-06-04T06:45:18;98420.56;;;14.15;62.82
76746;BME280;65671;49.976;20.038;2023-06-04T06:47:44;98423.25;;;14.22;62.00
76746;BME280;65671;49.976;20.038;2023-06-04T06:50:10;98424.22;;;14.42;63.67
76746;BME280;65671;49.976;20.038;2023-06-04T06:52:36;98425.84;;;14.36;62.69
76746;BME280;65671;49.976;20.038;2023-06-04T06:55:03;98433.78;;;14.20;61.65
76746;BME280;65671;49.976;20.038;2023-06-04T06:57:29;98428.63;;;14.66;61.98
76746;BME280;65671;49.976;20.038;2023-06-04T06:59:55;98423.06;;;14.39;60.70
76746;BME280;65671;49.976;20.038;2023-06-04T07:02:21;98424.75;;;14.64;62.35
76746;BME280;65671;49.976;20.038;2023-06-04T07:04:47;98422.84;;;14.91;62.50
76746;BME280;65671;49.976;20.038;2023-06-04T07:07:13;98429.81;;;14.95;59.17
76746;BME280;65671;49.976;20.038;2023-06-04T07:09:39;98428.84;;;15.09;60.09
76746;BME280;65671;49.976;20.038;2023-06-04T07:12:04;98436.13;;;15.19;58.03
76746;BME280;65671;49.976;20.038;2023-06-04T07:14:31;98420.34;;;15.03;57.91
76746;BME280;65671;49.976;20.038;2023-06-04T07:16:56;98423.44;;;15.05;57.56
76746;BME280;65671;49.976;20.038;2023-06-04T07:19:21;98432.00;;;15.34;58.66
76746;BME280;65671;49.976;20.038;2023-06-04T07:21:47;98420.72;;;15.59;55.48
76746;BME280;65671;49.976;20.038;2023-06-04T07:24:12;98426.38;;;15.72;55.91
76746;BME280;65671;49.976;20.038;2023-06-04T07:26:38;98427.97;;;16.15;55.47
76746;BME280;65671;49.976;20.038;2023-06-04T07:29:03;98429.56;;;16.13;55.22
76746;BME280;65671;49.976;20.038;2023-06-04T07:31:29;98419.91;;;16.08;55.14
76746;BME280;65671;49.976;20.038;2023-06-04T07:33:55;98419.09;;;16.31;55.29
76746;BME280;65671;49.976;20.038;2023-06-04T07:36:20;98427.31;;;16.51;54.34
76746;BME280;65671;49.976;20.038;2023-06-04T07:38:46;98418.22;;;16.77;50.69
76746;BME280;65671;49.976;20.038;2023-06-04T07:41:11;98422.47;;;16.62;51.37
76746;BME280;65671;49.976;20.038;2023-06-04T07:43:37;98428.53;;;16.69;54.10
76746;BME280;65671;49.976;20.038;2023-06-04T07:46:03;98424.06;;;16.79;50.55
76746;BME280;65671;49.976;20.038;2023-06-04T07:48:29;98426.13;;;16.52;47.30
76746;BME280;65671;49.976;20.038;2023-06-04T07:50:58;98420.63;;;16.75;49.04
76746;BME280;65671;49.976;20.038;2023-06-04T07:53:25;98424.41;;;16.81;49.34
76746;BME280;65671;49.976;20.038;2023-06-04T07:55:50;98422.72;;;16.87;50.48
76746;BME280;65671;49.976;20.038;2023-06-04T07:58:16;98423.41;;;16.91;48.21
76746;BME280;65671;49.976;20.038;2023-06-04T08:00:42;98421.94;;;17.06;52.00
76746;BME280;65671;49.976;20.038;2023-06-04T08:03:07;98428.88;;;16.91;46.58
76746;BME280;65671;49.976;20.038;2023-06-04T08:05:34;98427.53;;;17.51;50.92
76746;BME280;65671;49.976;20.038;2023-06-04T08:07:59;98433.22;;;17.60;45.49
76746;BME280;65671;49.976;20.038;2023-06-04T08:10:25;98428.38;;;17.68;49.62
76746;BME280;65671;49.976;20.038;2023-06-04T08:12:51;98429.75;;;17.04;45.04
76746;BME280;65671;49.976;20.038;2023-06-04T08:15:16;98433.78;;;17.36;46.72
76746;BME280;65671;49.976;20.038;2023-06-04T08:17:42;98433.34;;;17.37;45.01
76746;BME280;65671;49.976;20.038;2023-06-04T08:20:07;98430.47;;;17.60;47.27
76746;BME280;65671;49.976;20.038;2023-06-04T08:22:34;98427.13;;;18.01;47.68
76746;BME280;65671;49.976;20.038;2023-06-04T08:25:00;98425.44;;;17.75;46.13
76746;BME280;65671;49.976;20.038;2023-06-04T08:27:25;98430.97;;;18.20;47.54
76746;BME280;65671;49.976;20.038;2023-06-04T08:29:51;98439.63;;;18.02;43.80
76746;BME280;65671;49.976;20.038;2023-06-04T08:32:18;98433.84;;;18.29;44.26
76746;BME280;65671;49.976;20.038;2023-06-04T08:34:43;98435.81;;;18.28;43.63
76746;BME280;65671;49.976;20.038;2023-06-04T08:37:09;98437.38;;;18.29;42.25
76746;BME280;65671;49.976;20.038;2023-06-04T08:39:35;98441.38;;;18.70;46.37
76746;BME280;65671;49.976;20.038;2023-06-04T08:42:04;98441.84;;;18.81;41.78
76746;BME280;65671;49.976;20.038;2023-06-04T08:44:32;98440.94;;;18.42;41.90
76746;BME280;65671;49.976;20.038;2023-06-04T08:47:03;98435.50;;;18.26;42.20
76746;BME280;65671;49.976;20.038;2023-06-04T08:49:34;98438.81;;;18.50;43.37
76746;BME280;65671;49.976;20.038;2023-06-04T08:52:01;98433.25;;;18.66;44.99
76746;BME280;65671;49.976;20.038;2023-06-04T08:54:28;98433.38;;;18.63;43.24
76746;BME280;65671;49.976;20.038;2023-06-04T08:56:56;98438.50;;;18.61;41.78
76746;BME280;65671;49.976;20.038;2023-06-04T08:59:22;98430.50;;;18.54;42.07
76746;BME280;65671;49.976;20.038;2023-06-04T09:01:48;98430.97;;;18.65;40.84
76746;BME280;65671;49.976;20.038;2023-06-04T09:04:16;98436.31;;;18.97;41.55
76746;BME280;65671;49.976;20.038;2023-06-04T09:06:44;98420.44;;;18.47;39.48
76746;BME280;65671;49.976;20.038;2023-06-04T09:09:12;98431.91;;;18.58;37.50
76746;BME280;65671;49.976;20.038;2023-06-04T09:11:52;98439.28;;;19.03;42.62
76746;BME280;65671;49.976;20.038;2023-06-04T09:14:18;98420.56;;;19.39;42.87
76746;BME280;65671;49.976;20.038;2023-06-04T09:16:49;98427.34;;;19.22;40.61
76746;BME280;65671;49.976;20.038;2023-06-04T09:19:15;98436.75;;;19.08;37.98
76746;BME280;65671;49.976;20.038;2023-06-04T09:21:55;98440.13;;;19.54;41.29
76746;BME280;65671;49.976;20.038;2023-06-04T09:24:23;98432.94;;;19.18;39.15
76746;BME280;65671;49.976;20.038;2023-06-04T09:26:50;98441.13;;;18.93;37.97
76746;BME280;65671;49.976;20.038;2023-06-04T09:29:17;98445.28;;;18.85;37.90
76746;BME280;65671;49.976;20.038;2023-06-04T09:31:47;98445.97;;;18.89;38.86
76746;BME280;65671;49.976;20.038;2023-06-04T09:34:13;98449.84;;;19.04;39.93
76746;BME280;65671;49.976;20.038;2023-06-04T09:36:40;98440.59;;;18.98;37.60
76746;BME280;65671;49.976;20.038;2023-06-04T09:39:16;98440.31;;;19.21;36.90
76746;BME280;65671;49.976;20.038;2023-06-04T09:41:42;98431.31;;;19.33;37.70
76746;BME280;65671;49.976;20.038;2023-06-04T09:44:08;98436.59;;;19.66;38.82
76746;BME280;65671;49.976;20.038;2023-06-04T09:46:36;98431.03;;;20.03;39.17
76746;BME280;65671;49.976;20.038;2023-06-04T09:49:05;98428.97;;;19.95;37.53
76746;BME280;65671;49.976;20.038;2023-06-04T09:51:32;98434.28;;;19.77;39.98
76746;BME280;65671;49.976;20.038;2023-06-04T09:53:59;98426.50;;;20.10;40.31
76746;BME280;65671;49.976;20.038;2023-06-04T09:56:26;98433.91;;;20.00;39.18
76746;BME280;65671;49.976;20.038;2023-06-04T09:58:59;98432.09;;;19.59;39.62
76746;BME280;65671;49.976;20.038;2023-06-04T10:01:29;98429.19;;;19.75;41.52
76746;BME280;65671;49.976;20.038;2023-06-04T10:04:02;98427.13;;;19.79;37.07
76746;BME280;65671;49.976;20.038;2023-06-04T10:06:33;98427.50;;;20.03;41.71
76746;BME280;65671;49.976;20.038;2023-06-04T10:09:04;98424.34;;;20.39;39.16
76746;BME280;65671;49.976;20.038;2023-06-04T10:11:34;98424.84;;;20.46;39.37
76746;BME280;65671;49.976;20.038;2023-06-04T10:14:03;98422.25;;;19.96;40.27
76746;BME280;65671;49.976;20.038;2023-06-04T10:16:32;98424.44;;;20.01;42.43
76746;BME280;65671;49.976;20.038;2023-06-04T10:18:58;98424.69;;;20.63;40.91
76746;BME280;65671;49.976;20.038;2023-06-04T10:21:26;98427.72;;;20.09;38.96
76746;BME280;65671;49.976;20.038;2023-06-04T10:23:51;98430.66;;;20.27;36.75
76746;BME280;65671;49.976;20.038;2023-06-04T10:26:17;98426.59;;;20.19;39.82
76746;BME280;65671;49.976;20.038;2023-06-04T10:28:43;98431.31;;;20.18;39.82
76746;BME280;65671;49.976;20.038;2023-06-04T10:31:10;98433.38;;;20.39;41.62
76746;BME280;65671;49.976;20.038;2023-06-04T10:33:37;98424.09;;;19.99;40.42
76746;BME280;65671;49.976;20.038;2023-06-04T10:36:19;98425.44;;;19.94;40.40
76746;BME280;65671;49.976;20.038;2023-06-04T10:38:49;98414.22;;;20.01;39.29
76746;BME280;65671;49.976;20.038;2023-06-04T10:41:17;98418.16;;;20.00;37.90
76746;BME280;65671;49.976;20.038;2023-06-04T10:43:51;98421.00;;;19.63;37.44
76746;BME280;65671;49.976;20.038;2023-06-04T10:46:18;98420.53;;;19.64;37.82
76746;BME280;65671;49.976;20.038;2023-06-04T10:51:11;98413.94;;;19.87;40.49
76746;BME280;65671;49.976;20.038;2023-06-04T10:53:36;98407.66;;;20.33;39.23
76746;BME280;65671;49.976;20.038;2023-06-04T10:56:02;98411.41;;;20.27;38.99
76746;BME280;65671;49.976;20.038;2023-06-04T10:58:33;98421.78;;;20.10;36.62
76746;BME280;65671;49.976;20.038;2023-06-04T11:00:58;98421.94;;;20.28;37.43
76746;BME280;65671;49.976;20.038;2023-06-04T11:03:34;98415.97;;;20.64;40.36
76746;BME280;65671;49.976;20.038;2023-06-04T11:06:01;98415.44;;;21.00;37.54
76746;BME280;65671;49.976;20.038;2023-06-04T11:08:29;98412.38;;;20.76;38.12
76746;BME280;65671;49.976;20.038;2023-06-04T11:10:55;98412.75;;;20.44;36.42
76746;BME280;65671;49.976;20.038;2023-06-04T11:13:25;98414.66;;;20.99;38.39
76746;BME280;65671;49.976;20.038;2023-06-04T11:15:53;98405.66;;;20.77;37.12
76746;BME280;65671;49.976;20.038;2023-06-04T11:18:20;98424.91;;;20.55;37.31
76746;BME280;65671;49.976;20.038;2023-06-04T11:20:58;98414.41;;;20.85;35.82
76746;BME280;65671;49.976;20.038;2023-06-04T11:23:24;98417.25;;;20.72;36.69
76746;BME280;65671;49.976;20.038;2023-06-04T11:25:52;98414.81;;;20.96;34.33
76746;BME280;65671;49.976;20.038;2023-06-04T11:28:18;98412.59;;;20.60;33.22
76746;BME280;65671;49.976;20.038;2023-06-04T11:31:02;98412.19;;;21.23;37.04
76746;BME280;65671;49.976;20.038;2023-06-04T11:33:29;98412.06;;;21.27;34.65
76746;BME280;65671;49.976;20.038;2023-06-04T11:35:55;98412.25;;;21.32;34.98
76746;BME280;65671;49.976;20.038;2023-06-04T11:38:20;98412.97;;;21.24;37.41
76746;BME280;65671;49.976;20.038;2023-06-04T11:40:57;98408.53;;;20.95;34.07
76746;BME280;65671;49.976;20.038;2023-06-04T11:43:23;98418.69;;;21.07;32.71
76746;BME280;65671;49.976;20.038;2023-06-04T11:45:50;98415.31;;;21.03;34.14
76746;BME280;65671;49.976;20.038;2023-06-04T11:48:16;98413.91;;;20.99;33.01
76746;BME280;65671;49.976;20.038;2023-06-04T11:50:42;98422.09;;;21.11;36.11
76746;BME280;65671;49.976;20.038;2023-06-04T11:53:08;98415.47;;;21.31;35.06
76746;BME280;65671;49.976;20.038;2023-06-04T11:55:33;98407.25;;;21.40;36.71
76746;BME280;65671;49.976;20.038;2023-06-04T11:57:59;98407.56;;;21.51;34.43
76746;BME280;65671;49.976;20.038;2023-06-04T12:00:25;98396.50;;;21.02;33.02
76746;BME280;65671;49.976;20.038;2023-06-04T12:02:53;98397.25;;;21.33;36.86
76746;BME280;65671;49.976;20.038;2023-06-04T12:05:20;98393.91;;;21.07;33.13
76746;BME280;65671;49.976;20.038;2023-06-04T12:07:47;98395.75;;;21.41;33.67
76746;BME280;65671;49.976;20.038;2023-06-04T12:10:19;98404.38;;;21.61;34.91
76746;BME280;65671;49.976;20.038;2023-06-04T12:12:45;98399.66;;;21.71;33.43
76746;BME280;65671;49.976;20.038;2023-06-04T12:15:12;98401.75;;;21.98;32.56
76746;BME280;65671;49.976;20.038;2023-06-04T12:17:52;98405.97;;;21.32;33.72
76746;BME280;65671;49.976;20.038;2023-06-04T12:20:19;98407.25;;;21.40;32.83
76746;BME280;65671;49.976;20.038;2023-06-04T12:22:55;98406.53;;;21.57;34.46
76746;BME280;65671;49.976;20.038;2023-06-04T12:25:25;98413.34;;;20.82;31.13
76746;BME280;65671;49.976;20.038;2023-06-04T12:27:51;98405.31;;;21.19;33.28
76746;BME280;65671;49.976;20.038;2023-06-04T12:30:17;98394.00;;;21.65;35.83
76746;BME280;65671;49.976;20.038;2023-06-04T12:32:43;98407.34;;;21.85;32.18
76746;BME280;65671;49.976;20.038;2023-06-04T12:35:09;98405.38;;;21.86;32.45
76746;BME280;65671;49.976;20.038;2023-06-04T12:37:34;98397.63;;;21.53;30.85
76746;BME280;65671;49.976;20.038;2023-06-04T12:40:00;98407.09;;;21.92;30.77
76746;BME280;65671;49.976;20.038;2023-06-04T12:42:26;98397.16;;;22.22;32.86
76746;BME280;65671;49.976;20.038;2023-06-04T12:44:53;98401.16;;;22.21;33.01
76746;BME280;65671;49.976;20.038;2023-06-04T12:47:18;98406.22;;;22.41;32.50
76746;BME280;65671;49.976;20.038;2023-06-04T12:49:45;98391.78;;;22.09;30.87
76746;BME280;65671;49.976;20.038;2023-06-04T12:52:10;98387.28;;;21.76;30.78
76746;BME280;65671;49.976;20.038;2023-06-04T12:54:36;98398.84;;;22.10;33.27
76746;BME280;65671;49.976;20.038;2023-06-04T12:57:01;98402.53;;;22.44;34.54
76746;BME280;65671;49.976;20.038;2023-06-04T12:59:27;98404.22;;;22.23;32.89
76746;BME280;65671;49.976;20.038;2023-06-04T13:01:56;98404.38;;;22.29;34.50